アピア の空港の天気 - METARとTAF

ファレオロ国際空港(サモア) ( NSFA / APW ) - サモア アピア
飛行場実況気象(Metar)
観測時間06/18 08:00 WSST (06/17 19:00 UTC)
風向・風速南 2m/s
視程10km以上
天気現象
少しの雲 雲底高度 850m
全天の8割程度の雲 雲底高度 3660m
気温25℃
湿度94%
気圧1011hPa
METARNSFA 171900Z 19003KT 9999 FEW028 BKN120 25/24 Q1011
過去の天気等 Google飛行場航空写真 Wunderground天気予報

過去48時間のMETAR

飛行場予報(TAF)
発表時間: 6/18 06:11 WSST (6/17 17:11 UTC)
予報対象時間: 18日7時 WSST ~ 19日7時 WSST
風向・風速南東 3m/s
視程10km以上
少しの雲 雲底高度 700m
全天の4割程度の雲 雲底高度 1370m
18日13時 WSST ~ 18日19時 WSST に 確率 30% で一時的に
視程5000m
天気現象雷雨
少しの積乱雲 雲底高度 550m
TAF NSFA 171711Z 1718/1818 13005KT 9999 FEW023 SCT045
PROB30 TEMPO 1800/1806 5000 TSRA FEW018CB